Time;durP1;ratioP1;P1;durP2;ratioP2;P2;SDS_P1;SDS_P2;PMS_P1;PMS_P2;Temp;Humidity;BMP_temperature;BMP_pressure;BME280_temperature;BME280_humidity;BME280_pressure;Samples;Min_cycle;Max_cycle;Signal;HPM_P1;HPM_P2
2023/10/25 00:01:47;;;;;;;17.50;16.47;;;9.60;99.90;;;;;;4905801;29;20197;-80
2023/10/25 00:04:15;;;;;;;17.70;16.60;;;9.60;99.90;;;;;;4902761;29;20760;-79
2023/10/25 00:06:41;;;;;;;17.57;16.47;;;9.60;99.90;;;;;;4913963;29;20705;-79
2023/10/25 00:09:08;;;;;;;19.50;18.30;;;9.60;99.90;;;;;;4905739;29;20677;-79
2023/10/25 00:11:35;;;;;;;16.90;16.00;;;9.60;99.90;;;;;;4912426;29;20196;-79
2023/10/25 00:14:03;;;;;;;18.27;17.17;;;9.60;99.90;;;;;;4903426;29;20228;-79
2023/10/25 00:16:30;;;;;;;17.90;16.80;;;9.60;99.90;;;;;;4915008;29;20283;-79
2023/10/25 00:18:56;;;;;;;17.80;16.80;;;9.60;99.90;;;;;;4909223;29;20207;-79
2023/10/25 00:21:25;;;;;;;18.53;17.43;;;9.60;99.90;;;;;;4910414;29;20206;-79
2023/10/25 00:23:51;;;;;;;18.20;17.20;;;9.50;99.90;;;;;;4904179;29;20865;-80
2023/10/25 00:26:18;;;;;;;18.30;17.20;;;9.50;99.90;;;;;;4913781;29;20196;-80
2023/10/25 00:28:51;;;;;;;17.27;16.27;;;9.50;99.90;;;;;;4899302;29;20207;-80
2023/10/25 00:31:19;;;;;;;17.10;16.10;;;9.50;99.90;;;;;;4913232;29;20204;-79
2023/10/25 00:33:46;;;;;;;17.40;16.30;;;9.50;99.90;;;;;;4898444;29;20256;-79
2023/10/25 00:36:12;;;;;;;17.23;16.33;;;9.50;99.90;;;;;;4912393;29;20291;-80
2023/10/25 00:38:41;;;;;;;17.60;16.60;;;9.50;99.90;;;;;;4901334;29;20700;-79
2023/10/25 00:41:07;;;;;;;17.70;16.67;;;9.50;99.90;;;;;;4905349;29;20211;-79
2023/10/25 00:43:35;;;;;;;17.20;16.20;;;9.60;99.90;;;;;;4912650;29;20220;-79
2023/10/25 00:46:07;;;;;;;17.00;16.10;;;9.50;99.90;;;;;;4907777;29;20236;-79
2023/10/25 00:48:36;;;;;;;17.00;16.10;;;9.60;99.90;;;;;;4906463;29;20280;-79
2023/10/25 00:51:03;;;;;;;16.10;15.20;;;9.50;99.90;;;;;;4916026;29;20203;-79
2023/10/25 00:53:33;;;;;;;17.47;16.47;;;9.50;99.90;;;;;;4906256;29;20692;-79
2023/10/25 00:56:02;;;;;;;17.63;16.63;;;9.50;99.90;;;;;;4904700;29;20208;-79
2023/10/25 00:58:32;;;;;;;18.20;17.20;;;9.50;99.90;;;;;;4909073;29;20203;-79
2023/10/25 01:00:59;;;;;;;20.83;19.63;;;9.50;99.90;;;;;;4912037;29;20275;-80
2023/10/25 01:03:26;;;;;;;17.73;16.67;;;9.50;99.90;;;;;;4905711;29;20201;-79
2023/10/25 01:05:53;;;;;;;17.80;16.90;;;9.50;99.90;;;;;;4906088;29;20220;-80
2023/10/25 01:08:21;;;;;;;17.20;16.30;;;9.50;99.90;;;;;;4903261;29;20199;-80
2023/10/25 01:10:50;;;;;;;17.70;16.70;;;9.50;99.90;;;;;;4909527;29;20400;-79
2023/10/25 01:13:19;;;;;;;18.57;17.47;;;9.40;99.90;;;;;;4913096;29;20220;-79
2023/10/25 01:15:46;;;;;;;17.60;16.47;;;9.40;99.90;;;;;;4911679;29;20200;-80
2023/10/25 01:18:13;;;;;;;17.37;16.37;;;9.40;99.90;;;;;;4910230;29;20208;-80
2023/10/25 01:20:40;;;;;;;17.23;16.30;;;9.50;99.90;;;;;;4917368;29;20214;-79
2023/10/25 01:23:08;;;;;;;17.53;16.43;;;9.50;99.90;;;;;;4901517;29;20200;-79
2023/10/25 01:25:36;;;;;;;16.93;16.03;;;9.50;99.90;;;;;;4905916;29;20714;-79
2023/10/25 01:28:03;;;;;;;17.03;16.13;;;9.50;99.90;;;;;;4898682;29;20210;-79
2023/10/25 01:30:29;;;;;;;17.27;16.27;;;9.50;99.90;;;;;;4910872;29;20204;-80
2023/10/25 01:32:58;;;;;;;16.83;15.93;;;9.50;99.90;;;;;;4911260;29;20673;-80
2023/10/25 01:35:25;;;;;;;17.50;16.40;;;9.50;99.90;;;;;;4902320;29;20246;-79
2023/10/25 01:37:52;;;;;;;17.53;16.53;;;9.40;99.90;;;;;;4903984;29;20271;-79
2023/10/25 01:40:20;;;;;;;17.50;16.50;;;9.40;99.90;;;;;;4911830;29;20208;-79
2023/10/25 01:42:47;;;;;;;16.73;15.83;;;9.40;99.90;;;;;;4911226;29;20264;-80
2023/10/25 01:45:14;;;;;;;16.83;15.93;;;9.30;99.90;;;;;;4898363;29;20714;-80
2023/10/25 01:47:41;;;;;;;16.73;15.83;;;9.20;99.90;;;;;;4906549;29;20210;-79
2023/10/25 01:50:08;;;;;;;17.40;16.50;;;9.10;99.90;;;;;;4903061;29;20656;-80
2023/10/25 01:52:35;;;;;;;17.67;16.67;;;9.00;99.90;;;;;;4901977;29;20215;-79
2023/10/25 01:55:02;;;;;;;17.37;16.47;;;9.00;99.90;;;;;;4906380;29;20598;-79
2023/10/25 01:57:30;;;;;;;17.53;16.53;;;8.90;99.90;;;;;;4899893;29;20197;-80
2023/10/25 01:59:57;;;;;;;16.40;15.50;;;8.90;99.90;;;;;;4896278;29;20200;-80
2023/10/25 02:02:24;;;;;;;16.40;15.50;;;8.90;99.90;;;;;;4900355;29;20200;-79
2023/10/25 02:04:51;;;;;;;17.23;16.33;;;8.80;99.90;;;;;;4897839;29;20307;-80
2023/10/25 02:07:18;;;;;;;17.40;16.40;;;8.80;99.90;;;;;;4911831;29;20196;-79
2023/10/25 02:09:45;;;;;;;16.97;16.07;;;8.80;99.90;;;;;;4904338;29;20204;-79
2023/10/25 02:12:12;;;;;;;18.30;17.20;;;8.70;99.90;;;;;;4903005;29;20275;-79
2023/10/25 02:14:40;;;;;;;16.83;15.90;;;8.70;99.90;;;;;;4908099;29;20229;-78
2023/10/25 02:17:07;;;;;;;17.47;16.23;;;8.60;99.90;;;;;;4916102;29;20211;-79
2023/10/25 02:19:35;;;;;;;17.50;16.50;;;8.60;99.90;;;;;;4913781;29;20661;-80
2023/10/25 02:22:01;;;;;;;16.47;15.57;;;8.60;99.90;;;;;;4915483;29;20197;-79
2023/10/25 02:24:28;;;;;;;16.53;15.60;;;8.70;99.90;;;;;;4911923;29;20215;-80
2023/10/25 02:26:56;;;;;;;17.37;16.33;;;8.60;99.90;;;;;;4918171;29;20208;-79
2023/10/25 02:29:23;;;;;;;16.33;15.43;;;8.60;99.90;;;;;;4914907;29;20200;-79
2023/10/25 02:31:51;;;;;;;16.60;15.70;;;8.60;99.90;;;;;;4919615;29;20570;-80
2023/10/25 02:34:18;;;;;;;17.63;16.63;;;8.60;99.90;;;;;;4912997;29;20219;-80
2023/10/25 02:36:45;;;;;;;16.77;15.77;;;8.60;99.90;;;;;;4910555;29;20591;-79
2023/10/25 02:39:11;;;;;;;17.30;16.30;;;8.60;99.90;;;;;;4918942;29;20223;-80
2023/10/25 02:41:47;;;;;;;16.80;15.90;;;8.60;99.90;;;;;;4916086;29;20264;-84
2023/10/25 02:44:17;;;;;;;17.20;16.20;;;8.60;99.90;;;;;;4906736;29;20224;-80
2023/10/25 02:46:44;;;;;;;16.97;16.07;;;8.60;99.90;;;;;;4917625;29;20713;-79
2023/10/25 02:49:12;;;;;;;17.57;16.57;;;8.50;99.90;;;;;;4911949;29;20192;-80
2023/10/25 02:51:51;;;;;;;18.07;16.87;;;8.50;99.90;;;;;;4906534;29;20208;-79
2023/10/25 02:54:18;;;;;;;17.73;16.73;;;8.50;99.90;;;;;;4900726;29;20734;-80
2023/10/25 02:56:45;;;;;;;16.97;16.07;;;8.40;99.90;;;;;;4911355;29;20204;-79
2023/10/25 02:59:12;;;;;;;17.20;16.20;;;8.40;99.90;;;;;;4895308;29;20266;-78
2023/10/25 03:01:39;;;;;;;17.50;16.60;;;8.30;99.90;;;;;;4883678;29;20624;-79
2023/10/25 03:04:06;;;;;;;18.20;17.20;;;8.30;99.90;;;;;;4885462;29;20255;-78
2023/10/25 03:06:35;;;;;;;17.43;16.43;;;8.30;99.90;;;;;;4880629;29;20208;-78
2023/10/25 03:09:02;;;;;;;17.60;16.60;;;8.30;99.90;;;;;;4884895;29;20212;-78
2023/10/25 03:11:28;;;;;;;17.50;16.50;;;8.30;99.90;;;;;;4886922;29;20213;-78
2023/10/25 03:13:55;;;;;;;17.50;16.50;;;8.30;99.90;;;;;;4883516;29;20653;-79
2023/10/25 03:16:22;;;;;;;18.67;17.47;;;8.20;99.90;;;;;;4894682;29;20209;-80
2023/10/25 03:18:49;;;;;;;18.00;17.00;;;8.30;99.90;;;;;;4908464;29;20215;-78
2023/10/25 03:21:16;;;;;;;19.10;18.00;;;8.30;99.90;;;;;;4915624;29;20212;-78
2023/10/25 03:23:44;;;;;;;18.07;16.90;;;8.40;99.90;;;;;;4894740;29;20576;-77
2023/10/25 03:26:11;;;;;;;17.67;16.67;;;8.40;99.90;;;;;;4890435;29;20209;-78
2023/10/25 03:28:38;;;;;;;17.80;16.80;;;8.50;99.90;;;;;;4906939;29;20207;-78
2023/10/25 03:31:05;;;;;;;17.40;16.40;;;8.50;99.90;;;;;;4902925;29;20262;-77
2023/10/25 03:33:32;;;;;;;18.10;17.10;;;8.50;99.90;;;;;;4899019;29;20204;-78
2023/10/25 03:36:00;;;;;;;17.77;16.77;;;8.40;99.90;;;;;;4911828;29;20215;-77
2023/10/25 03:38:26;;;;;;;17.97;16.90;;;8.50;99.90;;;;;;4916448;29;20204;-79
2023/10/25 03:41:02;;;;;;;18.27;17.17;;;8.50;99.90;;;;;;4900088;29;20209;-77
2023/10/25 03:43:29;;;;;;;19.40;18.30;;;8.50;99.90;;;;;;4900192;29;20302;-77
2023/10/25 03:45:56;;;;;;;19.60;18.30;;;8.50;99.90;;;;;;4912447;29;20280;-76
2023/10/25 03:48:22;;;;;;;19.07;17.97;;;8.50;99.90;;;;;;4912046;29;20207;-77
2023/10/25 03:50:50;;;;;;;18.97;17.77;;;8.50;99.90;;;;;;4905387;29;20213;-77
2023/10/25 03:53:17;;;;;;;18.40;17.30;;;8.50;99.90;;;;;;4887913;29;20674;-76
2023/10/25 03:55:53;;;;;;;19.10;17.93;;;8.50;99.90;;;;;;4896525;29;20587;-78
2023/10/25 03:58:21;;;;;;;20.63;19.23;;;8.50;99.90;;;;;;4910634;29;20294;-77
2023/10/25 04:00:48;;;;;;;20.20;19.00;;;8.50;99.90;;;;;;4901895;29;20196;-78
2023/10/25 04:03:16;;;;;;;19.93;18.73;;;8.40;99.90;;;;;;4893215;29;20730;-77
2023/10/25 04:05:43;;;;;;;19.70;18.53;;;8.40;99.90;;;;;;4900853;29;20201;-76
2023/10/25 04:08:10;;;;;;;19.37;18.13;;;8.30;99.90;;;;;;4896229;29;20231;-76
2023/10/25 04:10:37;;;;;;;19.00;17.87;;;8.30;99.90;;;;;;4913004;29;20200;-77
2023/10/25 04:13:04;;;;;;;19.60;18.40;;;8.30;99.90;;;;;;4913868;29;20208;-77
2023/10/25 04:15:34;;;;;;;19.73;18.47;;;8.30;99.90;;;;;;4909033;29;20251;-78
2023/10/25 04:18:02;;;;;;;19.03;17.93;;;8.20;99.90;;;;;;4902978;29;20215;-77
2023/10/25 04:20:32;;;;;;;18.73;17.63;;;8.10;99.90;;;;;;4907186;29;20669;-77
2023/10/25 04:22:59;;;;;;;19.63;18.47;;;8.10;99.90;;;;;;4906823;29;20208;-77
2023/10/25 04:25:26;;;;;;;19.43;18.23;;;8.10;99.90;;;;;;4905518;29;20221;-77
2023/10/25 04:27:53;;;;;;;18.90;17.70;;;8.00;99.90;;;;;;4906370;29;20196;-77
2023/10/25 04:30:20;;;;;;;19.83;18.53;;;7.90;99.90;;;;;;4915249;29;20252;-77
2023/10/25 04:32:48;;;;;;;18.60;17.50;;;7.80;99.90;;;;;;4903404;29;20208;-77
2023/10/25 04:35:15;;;;;;;18.77;17.67;;;7.80;99.90;;;;;;4908738;29;20286;-77
2023/10/25 04:37:42;;;;;;;18.20;17.10;;;7.80;99.90;;;;;;4908564;29;20221;-77
2023/10/25 04:40:10;;;;;;;20.03;18.73;;;7.70;99.90;;;;;;4898519;29;20216;-77
2023/10/25 04:42:36;;;;;;;19.30;18.17;;;7.70;99.90;;;;;;4901605;29;20212;-77
2023/10/25 04:45:04;;;;;;;18.87;17.77;;;7.60;99.90;;;;;;4908404;29;20228;-77
2023/10/25 04:47:30;;;;;;;19.10;18.00;;;7.60;99.90;;;;;;4911547;29;20199;-77
2023/10/25 04:50:04;;;;;;;20.50;19.30;;;7.60;99.90;;;;;;4911956;29;20265;-77
2023/10/25 04:52:31;;;;;;;21.03;19.73;;;7.60;99.90;;;;;;4902872;29;20589;-77
2023/10/25 04:54:58;;;;;;;21.83;20.43;;;7.60;99.90;;;;;;4899361;29;20265;-77
2023/10/25 04:57:25;;;;;;;21.77;20.33;;;7.70;99.90;;;;;;4904156;29;20721;-77
2023/10/25 04:59:53;;;;;;;21.57;20.23;;;7.70;99.90;;;;;;4907093;29;20207;-77
2023/10/25 05:02:19;;;;;;;20.97;19.67;;;7.70;99.90;;;;;;4888640;29;20214;-76
2023/10/25 05:04:47;;;;;;;20.87;19.30;;;7.70;99.90;;;;;;4904068;29;20221;-77
2023/10/25 05:07:15;;;;;;;21.03;19.73;;;7.70;99.90;;;;;;4910268;29;20393;-78
2023/10/25 05:09:43;;;;;;;20.43;19.13;;;7.70;99.90;;;;;;4904010;29;20210;-77
2023/10/25 05:12:13;;;;;;;19.90;18.80;;;7.60;99.90;;;;;;4903798;29;20207;-76
2023/10/25 05:14:41;;;;;;;20.33;19.13;;;7.60;99.90;;;;;;4887247;29;20227;-76
2023/10/25 05:17:09;;;;;;;20.40;19.20;;;7.50;99.90;;;;;;4887748;29;20592;-77
2023/10/25 05:19:36;;;;;;;20.37;19.17;;;7.50;99.90;;;;;;4889978;29;20718;-76
2023/10/25 05:22:10;;;;;;;20.10;18.90;;;7.40;99.90;;;;;;4882496;29;20756;-77
2023/10/25 05:24:39;;;;;;;20.10;18.90;;;7.40;99.90;;;;;;4890052;29;20303;-77
2023/10/25 05:27:07;;;;;;;20.50;19.30;;;7.30;99.90;;;;;;4889351;29;20247;-77
2023/10/25 05:29:34;;;;;;;20.07;18.97;;;7.30;99.90;;;;;;4887235;29;20231;-77
2023/10/25 05:32:06;;;;;;;21.50;20.20;;;7.30;99.90;;;;;;4891229;29;20225;-77
2023/10/25 05:34:33;;;;;;;21.00;19.70;;;7.30;99.90;;;;;;4890152;29;20625;-78
2023/10/25 05:37:01;;;;;;;21.27;19.97;;;7.30;99.90;;;;;;4893479;29;20226;-78
2023/10/25 05:39:28;;;;;;;20.50;19.30;;;7.20;99.90;;;;;;4895220;29;20209;-78
2023/10/25 05:41:59;;;;;;;22.10;20.50;;;7.20;99.90;;;;;;4887976;29;20260;-76
2023/10/25 05:44:26;;;;;;;20.77;19.47;;;7.20;99.90;;;;;;4894522;29;20290;-76
2023/10/25 05:46:53;;;;;;;21.50;20.10;;;7.20;99.90;;;;;;4890249;29;20295;-76
2023/10/25 05:49:20;;;;;;;21.63;20.23;;;7.10;99.90;;;;;;4891238;29;20210;-76
2023/10/25 05:51:47;;;;;;;21.47;20.17;;;7.10;99.90;;;;;;4893842;29;20649;-76
2023/10/25 05:54:15;;;;;;;22.30;20.90;;;7.10;99.90;;;;;;4892421;29;20238;-76
2023/10/25 05:56:43;;;;;;;21.77;20.40;;;7.00;99.90;;;;;;4889010;29;20208;-76
2023/10/25 05:59:11;;;;;;;21.50;20.20;;;7.10;99.90;;;;;;4890511;29;20698;-76
2023/10/25 06:01:48;;;;;;;21.83;20.33;;;7.20;99.90;;;;;;4893440;29;20231;-76
2023/10/25 06:04:15;;;;;;;21.97;20.57;;;7.20;99.90;;;;;;4890499;29;20230;-76
2023/10/25 06:06:44;;;;;;;21.23;19.87;;;7.30;99.90;;;;;;4890590;29;20218;-76
2023/10/25 06:09:13;;;;;;;21.23;19.87;;;7.30;99.90;;;;;;4893687;29;20267;-76
2023/10/25 06:11:41;;;;;;;19.40;18.30;;;7.30;99.90;;;;;;4893095;29;20246;-76
2023/10/25 06:14:09;;;;;;;19.10;18.00;;;7.40;99.90;;;;;;4893647;29;20261;-76
2023/10/25 06:16:37;;;;;;;19.13;18.03;;;7.40;99.90;;;;;;4890288;29;20232;-76
2023/10/25 06:19:04;;;;;;;18.93;17.83;;;7.40;99.90;;;;;;4907946;29;20210;-76
2023/10/25 06:21:31;;;;;;;20.13;18.97;;;7.30;99.90;;;;;;4891432;29;20227;-76
2023/10/25 06:23:57;;;;;;;19.17;17.97;;;7.20;99.90;;;;;;4887747;29;20912;-76
2023/10/25 06:26:24;;;;;;;18.60;17.50;;;7.20;99.90;;;;;;4886700;29;20231;-77
2023/10/25 06:28:51;;;;;;;18.17;17.07;;;7.20;99.90;;;;;;4893175;29;20702;-77
2023/10/25 06:31:18;;;;;;;18.37;17.27;;;7.30;99.90;;;;;;4890249;29;20222;-76
2023/10/25 06:33:46;;;;;;;18.60;17.40;;;7.30;99.90;;;;;;4892238;29;20313;-77
2023/10/25 06:36:14;;;;;;;18.93;17.73;;;7.30;99.90;;;;;;4888757;29;20308;-78
2023/10/25 06:38:42;;;;;;;18.30;17.20;;;7.40;99.90;;;;;;4904133;29;20223;-76
2023/10/25 06:41:15;;;;;;;18.60;17.40;;;7.40;99.90;;;;;;4892448;29;20202;-77
2023/10/25 06:43:43;;;;;;;17.80;16.80;;;7.40;99.90;;;;;;4889247;29;20235;-78
2023/10/25 06:46:11;;;;;;;18.20;17.10;;;7.40;99.90;;;;;;4892914;29;20288;-77
2023/10/25 06:48:38;;;;;;;18.03;16.93;;;7.30;99.90;;;;;;4887458;29;20270;-77
2023/10/25 06:51:08;;;;;;;18.50;17.30;;;7.30;99.90;;;;;;4892171;29;20270;-76
2023/10/25 06:53:36;;;;;;;18.73;17.53;;;7.40;99.90;;;;;;4891606;29;20272;-77
2023/10/25 06:56:03;;;;;;;17.97;16.93;;;7.40;99.90;;;;;;4892634;29;20778;-77
2023/10/25 06:58:31;;;;;;;17.50;16.50;;;7.40;99.90;;;;;;4891271;29;20247;-76
2023/10/25 07:00:58;;;;;;;17.90;16.90;;;7.50;99.90;;;;;;4891349;29;20229;-77
2023/10/25 07:03:32;;;;;;;17.50;16.50;;;7.60;99.90;;;;;;4886014;29;20267;-76
2023/10/25 07:06:01;;;;;;;18.07;17.07;;;7.60;99.90;;;;;;4892761;29;20770;-77
2023/10/25 07:08:29;;;;;;;17.93;16.93;;;7.70;99.90;;;;;;4885170;29;20300;-77
2023/10/25 07:11:00;;;;;;;16.67;15.77;;;7.80;99.90;;;;;;4888905;29;20213;-80
2023/10/25 07:13:27;;;;;;;17.40;16.40;;;7.80;99.90;;;;;;4891658;29;20705;-80
2023/10/25 07:15:55;;;;;;;17.17;16.17;;;7.90;99.90;;;;;;4895787;29;20248;-80
2023/10/25 07:18:22;;;;;;;18.40;17.30;;;8.10;99.90;;;;;;4897952;29;20677;-79
2023/10/25 07:20:51;;;;;;;18.40;17.30;;;8.30;99.90;;;;;;4893581;29;20204;-79
2023/10/25 07:23:18;;;;;;;21.07;19.70;;;8.60;99.90;;;;;;4913388;29;20279;-79
2023/10/25 07:25:46;;;;;;;20.27;18.90;;;9.00;99.90;;;;;;4901389;29;20215;-79
2023/10/25 07:28:14;;;;;;;8.93;8.13;;;9.30;99.90;;;;;;4896606;29;20212;-79
2023/10/25 07:30:41;;;;;;;8.87;8.07;;;9.60;99.90;;;;;;4899647;29;20209;-80
2023/10/25 07:33:07;;;;;;;16.30;15.20;;;9.80;99.90;;;;;;4907032;29;20482;-80
2023/10/25 07:35:34;;;;;;;17.50;16.40;;;10.10;99.90;;;;;;4900778;29;20276;-78
2023/10/25 07:38:01;;;;;;;19.00;17.80;;;10.40;99.90;;;;;;4899295;29;20220;-79
2023/10/25 07:40:28;;;;;;;18.40;17.30;;;10.70;99.90;;;;;;4886493;29;20208;-80
2023/10/25 07:42:56;;;;;;;9.87;9.07;;;11.00;99.90;;;;;;4899947;29;20205;-79
2023/10/25 07:45:23;;;;;;;18.00;16.90;;;11.40;99.90;;;;;;4898299;29;20235;-79
2023/10/25 07:47:50;;;;;;;15.57;14.57;;;11.80;99.90;;;;;;4899499;29;20208;-79
2023/10/25 07:50:20;;;;;;;14.77;13.33;;;12.20;99.90;;;;;;4898493;29;20294;-79
2023/10/25 07:52:48;;;;;;;7.77;7.20;;;12.40;99.90;;;;;;4898657;29;20215;-79
2023/10/25 07:55:15;;;;;;;9.00;8.40;;;12.60;99.90;;;;;;4896156;29;20232;-79
2023/10/25 07:57:42;;;;;;;5.60;5.20;;;12.80;99.90;;;;;;4897625;29;20207;-79
2023/10/25 08:00:11;;;;;;;11.47;10.70;;;12.90;99.90;;;;;;4890186;29;20257;-79
2023/10/25 08:02:41;;;;;;;14.07;13.27;;;13.00;99.90;;;;;;4897864;29;20219;-80
2023/10/25 08:05:08;;;;;;;6.60;6.13;;;13.00;99.90;;;;;;4899988;29;20234;-80
2023/10/25 08:11:01;;;;;;;14.60;13.70;;;13.00;99.90;;;;;;4893065;29;20200;-79
2023/10/25 08:13:28;;;;;;;4.50;4.20;;;13.00;99.90;;;;;;4899175;29;20216;-79
2023/10/25 08:16:00;;;;;;;4.93;4.53;;;13.00;99.90;;;;;;4901626;29;20245;-79
2023/10/25 08:18:28;;;;;;;4.67;4.37;;;13.00;99.90;;;;;;4900519;29;20204;-80
2023/10/25 08:21:04;;;;;;;4.23;3.93;;;13.10;99.90;;;;;;4898658;29;20220;-84
2023/10/25 08:23:34;;;;;;;13.80;13.00;;;13.10;99.90;;;;;;4891800;29;20299;-79
2023/10/25 08:26:01;;;;;;;9.60;9.00;;;13.20;99.90;;;;;;4899862;29;20206;-79
2023/10/25 08:28:28;;;;;;;12.50;11.80;;;13.20;99.90;;;;;;4897418;29;20215;-79
2023/10/25 08:30:55;;;;;;;11.90;11.20;;;13.20;99.90;;;;;;4898237;29;20262;-79
2023/10/25 08:33:23;;;;;;;12.50;11.80;;;13.20;99.90;;;;;;4902315;29;20211;-79
2023/10/25 08:35:49;;;;;;;4.30;4.00;;;13.20;99.90;;;;;;4897316;29;20256;-79
2023/10/25 08:38:16;;;;;;;4.17;3.80;;;13.20;99.90;;;;;;4897476;29;20211;-79
2023/10/25 08:40:44;;;;;;;4.00;3.70;;;13.10;99.90;;;;;;4891852;29;20249;-79
2023/10/25 08:43:16;;;;;;;4.43;4.10;;;13.00;99.90;;;;;;4898255;29;20204;-79
2023/10/25 08:45:45;;;;;;;6.43;5.90;;;12.90;99.90;;;;;;4893812;29;20318;-80
2023/10/25 08:48:12;;;;;;;13.37;12.60;;;12.80;99.90;;;;;;4898569;29;20209;-79
2023/10/25 08:50:40;;;;;;;11.73;11.03;;;12.70;99.90;;;;;;4897947;29;20252;-79
2023/10/25 08:53:08;;;;;;;11.93;11.23;;;12.70;99.90;;;;;;4905872;29;20223;-79
2023/10/25 08:55:35;;;;;;;4.67;4.27;;;12.70;99.90;;;;;;4896999;29;20272;-79
2023/10/25 08:58:01;;;;;;;4.40;4.10;;;12.60;99.90;;;;;;4902294;29;20274;-79
2023/10/25 09:00:31;;;;;;;4.33;4.03;;;12.60;99.90;;;;;;4897638;29;20224;-79
2023/10/25 09:02:59;;;;;;;4.40;4.10;;;12.60;99.90;;;;;;4895760;29;20213;-79
2023/10/25 09:05:38;;;;;;;4.53;4.23;;;12.60;99.90;;;;;;4893260;29;20224;-79
2023/10/25 09:08:15;;;;;;;12.53;11.83;;;12.60;99.90;;;;;;4898896;29;20209;-79
2023/10/25 09:10:41;;;;;;;12.90;12.20;;;12.60;99.90;;;;;;4896160;29;20200;-79
2023/10/25 09:13:13;;;;;;;13.40;12.67;;;12.60;99.90;;;;;;4890224;29;20200;-79
2023/10/25 09:15:40;;;;;;;6.53;6.13;;;12.60;99.90;;;;;;4888813;29;20225;-79
2023/10/25 09:18:06;;;;;;;3.80;3.50;;;12.50;99.90;;;;;;4894342;29;20297;-79
2023/10/25 09:20:33;;;;;;;3.90;3.67;;;12.60;99.90;;;;;;4904944;29;20205;-84
2023/10/25 09:23:10;;;;;;;4.57;4.20;;;12.60;99.90;;;;;;4886523;29;20702;-83
2023/10/25 09:25:43;;;;;;;4.00;3.60;;;12.70;99.90;;;;;;4893443;29;20291;-83
2023/10/25 09:28:16;;;;;;;4.00;3.70;;;12.80;99.90;;;;;;4906214;29;20220;-83
2023/10/25 09:30:49;;;;;;;3.67;3.37;;;12.80;99.90;;;;;;4887475;29;20199;-83
2023/10/25 09:33:16;;;;;;;3.80;3.50;;;12.80;99.90;;;;;;4897519;29;20264;-79
2023/10/25 09:35:43;;;;;;;4.73;4.00;;;12.90;99.90;;;;;;4900068;29;20258;-79
2023/10/25 09:38:10;;;;;;;3.80;3.50;;;13.10;99.90;;;;;;4899426;29;20220;-80
2023/10/25 09:40:41;;;;;;;3.53;3.20;;;13.20;99.90;;;;;;4898288;29;20200;-80
2023/10/25 09:43:14;;;;;;;3.33;3.13;;;13.30;99.90;;;;;;4900304;29;20215;-80
2023/10/25 09:45:43;;;;;;;10.83;10.23;;;13.50;99.90;;;;;;4899630;29;20216;-80
2023/10/25 09:48:12;;;;;;;9.60;9.10;;;13.70;99.90;;;;;;4894765;29;20216;-80
2023/10/25 09:50:45;;;;;;;3.77;3.47;;;13.90;99.90;;;;;;4897875;29;20207;-79
2023/10/25 09:53:18;;;;;;;3.40;3.20;;;14.00;99.90;;;;;;4896242;29;20300;-80
2023/10/25 09:55:54;;;;;;;4.20;3.90;;;14.00;99.90;;;;;;4894942;29;20252;-80
2023/10/25 09:58:23;;;;;;;5.50;5.20;;;14.10;99.90;;;;;;4893743;29;20667;-80
2023/10/25 10:00:50;;;;;;;6.70;6.17;;;14.20;99.90;;;;;;4901655;29;20201;-80
2023/10/25 10:03:24;;;;;;;6.70;6.20;;;14.20;99.90;;;;;;4912114;29;20224;-80
2023/10/25 10:05:56;;;;;;;4.03;3.70;;;14.20;99.90;;;;;;4900783;29;20666;-80
2023/10/25 10:08:31;;;;;;;3.80;3.50;;;14.30;99.90;;;;;;4900422;29;20227;-80
2023/10/25 10:11:04;;;;;;;4.87;3.40;;;14.40;99.90;;;;;;4900113;29;20228;-80
2023/10/25 10:13:31;;;;;;;8.03;7.53;;;14.40;99.90;;;;;;4905642;29;20201;-80
2023/10/25 10:16:00;;;;;;;8.80;8.30;;;14.50;99.90;;;;;;4915403;29;20290;-79
2023/10/25 10:18:33;;;;;;;8.50;8.00;;;14.80;99.90;;;;;;4907245;29;20661;-79
2023/10/25 10:21:01;;;;;;;4.23;3.93;;;14.80;99.90;;;;;;4898520;29;20298;-80
2023/10/25 10:23:36;;;;;;;11.30;10.70;;;15.10;99.90;;;;;;4901925;29;20233;-80
2023/10/25 10:26:05;;;;;;;12.90;12.20;;;15.20;99.90;;;;;;4899502;29;20231;-80
2023/10/25 10:28:41;;;;;;;3.47;3.27;;;15.40;99.90;;;;;;4904494;29;20756;-80
2023/10/25 10:31:09;;;;;;;9.20;8.60;;;15.40;99.90;;;;;;4899703;29;20275;-80
2023/10/25 10:33:43;;;;;;;4.00;3.70;;;15.30;99.90;;;;;;4893088;29;20205;-79
2023/10/25 10:36:10;;;;;;;3.37;3.17;;;15.30;99.90;;;;;;4913441;29;20354;-80
2023/10/25 10:39:11;;;;;;;11.13;10.53;;;15.30;99.90;;;;;;4904438;29;20204;-80
2023/10/25 10:41:40;;;;;;;12.57;11.87;;;15.30;99.90;;;;;;4903773;29;20208;-80
2023/10/25 10:44:07;;;;;;;12.30;11.60;;;15.30;99.90;;;;;;4904866;29;20221;-80
2023/10/25 10:46:42;;;;;;;12.60;11.90;;;15.50;99.90;;;;;;4905861;29;20262;-80
2023/10/25 10:49:11;;;;;;;9.83;9.23;;;15.60;99.90;;;;;;4903427;29;20214;-80
2023/10/25 10:51:39;;;;;;;11.87;11.27;;;15.60;99.90;;;;;;4901401;29;20266;-80
2023/10/25 10:54:06;;;;;;;13.10;12.30;;;15.60;99.90;;;;;;4913537;29;20267;-80
2023/10/25 10:56:34;;;;;;;12.90;12.10;;;15.60;99.90;;;;;;4903113;29;20555;-82
2023/10/25 10:59:02;;;;;;;12.40;11.70;;;15.50;99.90;;;;;;4902523;29;20235;-80
2023/10/25 11:01:29;;;;;;;9.93;9.40;;;15.50;99.90;;;;;;4895678;29;20219;-80
2023/10/25 11:03:58;;;;;;;9.03;8.53;;;15.50;99.90;;;;;;4907098;29;20254;-80
2023/10/25 11:06:25;;;;;;;8.27;7.77;;;15.60;99.90;;;;;;4917404;29;20267;-80
2023/10/25 11:08:52;;;;;;;7.57;7.00;;;15.70;99.90;;;;;;4900536;29;20239;-80
2023/10/25 11:11:20;;;;;;;11.03;10.43;;;15.70;99.90;;;;;;4905538;29;20213;-80
2023/10/25 11:13:47;;;;;;;11.30;10.60;;;15.80;99.90;;;;;;4905247;29;20223;-80
2023/10/25 11:16:15;;;;;;;10.40;9.80;;;15.80;99.90;;;;;;4903132;29;20247;-80
2023/10/25 11:18:42;;;;;;;11.50;10.90;;;15.80;99.90;;;;;;4900139;29;20249;-80
2023/10/25 11:21:09;;;;;;;11.50;10.80;;;15.80;99.90;;;;;;4922462;29;20205;-80
2023/10/25 11:23:36;;;;;;;11.50;10.90;;;15.90;99.90;;;;;;4919907;29;20211;-81
2023/10/25 11:26:04;;;;;;;10.77;10.17;;;16.00;99.90;;;;;;4915766;29;20209;-80
2023/10/25 11:28:32;;;;;;;8.13;7.63;;;16.10;99.90;;;;;;4918243;29;20231;-80
2023/10/25 11:31:03;;;;;;;8.10;7.60;;;16.10;99.90;;;;;;4908943;29;20236;-80
2023/10/25 11:33:31;;;;;;;12.47;11.77;;;16.20;99.90;;;;;;4915644;29;20208;-81
2023/10/25 11:35:59;;;;;;;4.30;3.90;;;16.30;99.90;;;;;;4927214;29;20200;-81
2023/10/25 11:38:26;;;;;;;3.13;2.93;;;16.40;99.90;;;;;;4909969;29;20208;-81
2023/10/25 11:40:53;;;;;;;2.80;2.67;;;16.30;99.90;;;;;;4928319;29;20208;-81
2023/10/25 11:43:20;;;;;;;7.60;7.20;;;16.20;99.90;;;;;;4925840;29;20278;-81
2023/10/25 11:45:47;;;;;;;2.90;2.70;;;16.20;99.90;;;;;;4924260;29;20279;-80
2023/10/25 11:48:14;;;;;;;2.60;2.50;;;16.20;99.90;;;;;;4924017;29;20202;-80
2023/10/25 11:50:46;;;;;;;6.90;6.50;;;16.20;99.90;;;;;;4929691;29;20282;-80
2023/10/25 11:53:14;;;;;;;2.93;2.70;;;16.30;99.90;;;;;;4917875;29;20277;-80
2023/10/25 11:55:41;;;;;;;9.50;8.90;;;16.40;99.90;;;;;;4920311;29;20254;-80
2023/10/25 11:58:08;;;;;;;10.73;10.10;;;16.50;99.90;;;;;;4928259;29;20223;-80
2023/10/25 12:00:35;;;;;;;2.90;2.70;;;16.50;99.90;;;;;;4928056;29;20593;-80
2023/10/25 12:03:02;;;;;;;2.67;2.50;;;16.50;99.90;;;;;;4920671;29;20670;-80
2023/10/25 12:05:28;;;;;;;9.97;9.37;;;16.50;99.90;;;;;;4916566;29;20227;-80
2023/10/25 12:07:56;;;;;;;10.70;10.10;;;16.40;99.90;;;;;;4906986;29;20238;-80
2023/10/25 12:10:24;;;;;;;10.53;9.93;;;16.50;99.90;;;;;;4894012;29;20223;-79
2023/10/25 12:12:51;;;;;;;10.00;9.40;;;16.60;99.90;;;;;;4904031;29;20240;-79
2023/10/25 12:19:32;;;;;;;2.60;2.40;;;16.70;99.90;;;;;;4911597;29;20307;-84
2023/10/25 12:21:58;;;;;;;2.70;2.60;;;16.70;99.90;;;;;;4842827;29;20305;-79
2023/10/25 12:24:27;;;;;;;2.70;2.50;;;16.70;99.90;;;;;;4842857;29;20314;-79
2023/10/25 12:26:54;;;;;;;3.10;2.80;;;16.70;99.90;;;;;;4861873;29;20226;-78
2023/10/25 12:29:21;;;;;;;9.67;9.07;;;16.70;99.90;;;;;;4892230;29;20218;-77
2023/10/25 12:31:48;;;;;;;10.40;9.80;;;16.80;99.90;;;;;;4896208;29;20256;-81
2023/10/25 12:34:15;;;;;;;9.93;9.43;;;16.80;99.90;;;;;;4911211;29;20228;-83
2023/10/25 12:36:42;;;;;;;7.50;7.10;;;16.70;99.90;;;;;;4904586;29;20227;-82
2023/10/25 12:39:09;;;;;;;8.33;7.93;;;16.70;99.90;;;;;;4896812;29;20215;-83
2023/10/25 12:41:37;;;;;;;10.70;10.00;;;16.60;99.90;;;;;;4892182;29;20211;-79
2023/10/25 12:44:08;;;;;;;10.80;10.10;;;16.50;99.90;;;;;;4891337;29;20255;-78
2023/10/25 12:46:35;;;;;;;9.63;8.90;;;16.50;99.90;;;;;;4888542;29;20632;-79
2023/10/25 12:49:03;;;;;;;9.07;8.50;;;16.60;99.90;;;;;;4886366;29;20203;-80
2023/10/25 12:51:30;;;;;;;10.13;9.43;;;16.60;99.90;;;;;;4902162;29;20220;-83